Time;durP1;ratioP1;P1;durP2;ratioP2;P2;SDS_P1;SDS_P2;PMS_P1;PMS_P2;Temp;Humidity;BMP_temperature;BMP_pressure;BME280_temperature;BME280_humidity;BME280_pressure;Samples;Min_cycle;Max_cycle;Signal;HPM_P1;HPM_P2
2023/09/21 00:00:17;;;;;;;12.80;8.60;;;;;;;;;;5162733;27;20032;-73
2023/09/21 00:03:03;;;;;;;12.77;7.70;;;;;;;;;;5179672;27;20014;-73
2023/09/21 00:05:51;;;;;;;13.25;8.32;;;;;;;;;;5178286;27;20462;-73
2023/09/21 00:08:36;;;;;;;13.90;8.02;;;;;;;;;;5161981;27;20033;-73
2023/09/21 00:11:22;;;;;;;13.25;8.15;;;;;;;;;;5163363;27;20021;-73
2023/09/21 00:14:09;;;;;;;11.65;7.88;;;;;;;;;;5177556;27;20037;-73
2023/09/21 00:16:54;;;;;;;13.85;8.18;;;;;;;;;;5177312;27;20082;-73
2023/09/21 00:19:40;;;;;;;10.98;7.43;;;;;;;;;;5162939;27;20101;-73
2023/09/21 00:22:28;;;;;;;13.80;7.65;;;;;;;;;;5177911;27;20093;-74
2023/09/21 00:25:14;;;;;;;11.25;7.18;;;;;;;;;;5162475;27;20049;-74
2023/09/21 00:28:07;;;;;;;10.77;7.75;;;;;;;;;;5177881;27;20105;-74
2023/09/21 00:30:57;;;;;;;13.18;7.43;;;;;;;;;;5162328;27;20071;-73
2023/09/21 00:33:43;;;;;;;10.73;7.43;;;;;;;;;;5162264;27;20079;-73
2023/09/21 00:36:28;;;;;;;10.00;7.35;;;;;;;;;;5178139;27;20011;-73
2023/09/21 00:39:14;;;;;;;10.48;7.45;;;;;;;;;;5161139;27;20029;-74
2023/09/21 00:42:00;;;;;;;10.65;7.28;;;;;;;;;;5176957;27;20018;-74
2023/09/21 00:44:46;;;;;;;11.23;7.18;;;;;;;;;;5177254;27;20435;-74
2023/09/21 00:47:31;;;;;;;9.93;7.57;;;;;;;;;;5177536;27;20018;-74
2023/09/21 00:50:20;;;;;;;12.75;7.78;;;;;;;;;;5177620;27;20046;-73
2023/09/21 00:53:06;;;;;;;13.52;7.88;;;;;;;;;;5179366;27;20010;-73
2023/09/21 00:55:53;;;;;;;10.75;7.40;;;;;;;;;;5181164;27;20110;-73
2023/09/21 00:58:44;;;;;;;11.60;7.72;;;;;;;;;;5176051;27;20014;-72
2023/09/21 01:01:31;;;;;;;13.40;8.25;;;;;;;;;;5175823;27;20019;-73
2023/09/21 01:04:17;;;;;;;12.63;8.15;;;;;;;;;;5177062;27;20026;-73
2023/09/21 01:07:20;;;;;;;10.88;8.15;;;;;;;;;;5176619;27;20029;-74
2023/09/21 01:10:07;;;;;;;10.50;7.88;;;;;;;;;;5176847;27;20150;-73
2023/09/21 01:12:53;;;;;;;12.82;8.57;;;;;;;;;;5161063;27;20042;-73
2023/09/21 01:15:45;;;;;;;12.75;7.50;;;;;;;;;;5160420;27;20053;-73
2023/09/21 01:18:31;;;;;;;12.55;8.30;;;;;;;;;;5161890;27;20366;-73
2023/09/21 01:21:21;;;;;;;12.85;7.60;;;;;;;;;;5176103;27;20357;-73
2023/09/21 01:24:07;;;;;;;13.15;8.55;;;;;;;;;;5176309;27;20011;-73
2023/09/21 01:26:53;;;;;;;11.68;9.07;;;;;;;;;;5177856;27;20071;-73
2023/09/21 01:29:38;;;;;;;14.05;8.82;;;;;;;;;;5176617;27;20093;-73
2023/09/21 01:32:24;;;;;;;12.70;8.73;;;;;;;;;;5176039;27;20074;-74
2023/09/21 01:35:09;;;;;;;12.55;8.23;;;;;;;;;;5161370;27;20023;-73
2023/09/21 01:37:55;;;;;;;12.13;8.48;;;;;;;;;;5177069;27;20022;-74
2023/09/21 01:40:41;;;;;;;14.80;8.98;;;;;;;;;;5176240;27;20022;-72
2023/09/21 01:43:27;;;;;;;13.05;8.35;;;;;;;;;;5177035;27;20113;-73
2023/09/21 01:46:18;;;;;;;16.67;9.07;;;;;;;;;;5161337;27;20033;-74
2023/09/21 01:49:04;;;;;;;13.93;8.88;;;;;;;;;;5175280;27;20117;-74
2023/09/21 01:51:51;;;;;;;13.60;8.98;;;;;;;;;;5175958;27;20038;-73
2023/09/21 01:54:38;;;;;;;13.18;8.60;;;;;;;;;;5176321;27;20086;-73
2023/09/21 01:57:24;;;;;;;11.65;9.27;;;;;;;;;;5161084;27;20019;-74
2023/09/21 02:00:21;;;;;;;13.75;9.32;;;;;;;;;;5160631;27;20018;-74
2023/09/21 02:03:12;;;;;;;16.13;9.95;;;;;;;;;;5160350;27;20018;-75
2023/09/21 02:06:01;;;;;;;15.20;10.70;;;;;;;;;;5176517;27;20030;-73
2023/09/21 02:08:47;;;;;;;16.17;10.85;;;;;;;;;;5176298;27;20022;-74
2023/09/21 02:11:32;;;;;;;13.80;10.50;;;;;;;;;;5175905;27;20022;-74
2023/09/21 02:14:19;;;;;;;14.88;10.60;;;;;;;;;;5176155;27;20014;-75
2023/09/21 02:17:05;;;;;;;21.75;11.40;;;;;;;;;;5176602;27;20018;-74
2023/09/21 02:19:51;;;;;;;17.60;11.02;;;;;;;;;;5159363;27;20014;-74
2023/09/21 02:22:37;;;;;;;16.30;11.43;;;;;;;;;;5175640;27;20022;-73
2023/09/21 02:25:23;;;;;;;17.60;11.13;;;;;;;;;;5174936;27;20014;-73
2023/09/21 02:28:12;;;;;;;15.32;11.55;;;;;;;;;;5176076;27;20445;-74
2023/09/21 02:30:58;;;;;;;15.07;11.02;;;;;;;;;;5160717;27;20034;-74
2023/09/21 02:33:44;;;;;;;14.52;11.30;;;;;;;;;;5161392;27;20026;-74
2023/09/21 02:36:31;;;;;;;19.73;12.20;;;;;;;;;;5175581;27;20447;-74
2023/09/21 02:39:17;;;;;;;17.73;12.20;;;;;;;;;;5175235;27;20022;-74
2023/09/21 02:42:04;;;;;;;19.25;12.63;;;;;;;;;;5175976;27;20033;-74
2023/09/21 02:44:49;;;;;;;16.02;12.15;;;;;;;;;;5176500;27;20441;-74
2023/09/21 02:47:35;;;;;;;20.23;12.63;;;;;;;;;;5175782;27;20026;-74
2023/09/21 02:50:30;;;;;;;16.25;12.05;;;;;;;;;;5175625;27;20051;-74
2023/09/21 02:53:16;;;;;;;17.38;12.35;;;;;;;;;;5161192;27;20023;-74
2023/09/21 02:56:03;;;;;;;22.90;12.65;;;;;;;;;;5175244;27;20025;-74
2023/09/21 02:58:49;;;;;;;18.52;12.05;;;;;;;;;;5175027;27;20094;-74
2023/09/21 03:01:35;;;;;;;19.15;13.18;;;;;;;;;;5179784;27;20366;-74
2023/09/21 03:04:21;;;;;;;16.10;12.65;;;;;;;;;;5178416;27;20070;-73
2023/09/21 03:07:07;;;;;;;18.10;12.15;;;;;;;;;;5179110;27;20025;-73
2023/09/21 03:09:54;;;;;;;18.17;11.57;;;;;;;;;;5163772;27;20082;-74
2023/09/21 03:12:39;;;;;;;17.48;11.75;;;;;;;;;;5179983;27;20034;-74
2023/09/21 03:15:25;;;;;;;21.15;12.88;;;;;;;;;;5163055;27;20367;-74
2023/09/21 03:18:11;;;;;;;17.70;12.27;;;;;;;;;;5181721;27;20018;-73
2023/09/21 03:20:57;;;;;;;15.35;11.43;;;;;;;;;;5178146;27;20166;-74
2023/09/21 03:23:44;;;;;;;22.38;11.63;;;;;;;;;;5163696;27;20019;-73
2023/09/21 03:26:30;;;;;;;17.08;11.80;;;;;;;;;;5164343;27;20431;-73
2023/09/21 03:29:15;;;;;;;16.05;12.35;;;;;;;;;;5179648;27;20026;-73
2023/09/21 03:32:01;;;;;;;18.23;12.18;;;;;;;;;;5180063;27;20030;-74
2023/09/21 03:34:48;;;;;;;18.48;12.93;;;;;;;;;;5164635;27;20018;-73
2023/09/21 03:37:34;;;;;;;17.17;12.10;;;;;;;;;;5163833;27;20026;-74
2023/09/21 03:40:20;;;;;;;18.65;12.73;;;;;;;;;;5163396;27;20022;-73
2023/09/21 03:43:07;;;;;;;22.88;15.32;;;;;;;;;;5178734;27;20424;-73
2023/09/21 03:45:52;;;;;;;21.33;15.55;;;;;;;;;;5180236;27;20068;-73
2023/09/21 03:48:38;;;;;;;24.25;16.23;;;;;;;;;;5179537;27;20028;-73
2023/09/21 03:51:24;;;;;;;23.00;15.82;;;;;;;;;;5163184;27;20137;-75
2023/09/21 03:54:09;;;;;;;21.38;14.52;;;;;;;;;;5164198;27;20078;-73
2023/09/21 03:56:55;;;;;;;22.60;14.93;;;;;;;;;;5180113;27;20014;-75
2023/09/21 03:59:41;;;;;;;20.98;14.50;;;;;;;;;;5181247;27;20028;-74
2023/09/21 04:02:26;;;;;;;21.83;14.43;;;;;;;;;;5172175;27;20050;-73
2023/09/21 04:05:14;;;;;;;18.90;12.82;;;;;;;;;;5178228;27;20097;-74
2023/09/21 04:08:00;;;;;;;23.95;13.50;;;;;;;;;;5163096;27;20424;-72
2023/09/21 04:10:45;;;;;;;21.33;13.10;;;;;;;;;;5163079;27;20018;-72
2023/09/21 04:13:31;;;;;;;22.55;12.60;;;;;;;;;;5178813;27;20022;-73
2023/09/21 04:16:16;;;;;;;19.45;12.15;;;;;;;;;;5179808;27;20014;-71
2023/09/21 04:19:04;;;;;;;22.02;12.75;;;;;;;;;;5178062;27;20126;-72
2023/09/21 04:21:50;;;;;;;21.85;12.68;;;;;;;;;;5161783;27;20101;-72
2023/09/21 04:24:36;;;;;;;19.10;12.10;;;;;;;;;;5177745;27;20458;-72
2023/09/21 04:27:23;;;;;;;22.40;12.38;;;;;;;;;;5178133;27;20034;-73
2023/09/21 04:30:09;;;;;;;21.13;12.25;;;;;;;;;;5178858;27;20416;-73
2023/09/21 04:32:57;;;;;;;17.48;11.55;;;;;;;;;;5178096;27;20063;-73
2023/09/21 04:35:43;;;;;;;23.70;11.25;;;;;;;;;;5178056;27;20025;-75
2023/09/21 04:38:29;;;;;;;20.48;12.52;;;;;;;;;;5167355;27;20094;-74
2023/09/21 04:41:15;;;;;;;28.33;12.75;;;;;;;;;;5164015;27;20029;-74
2023/09/21 04:44:02;;;;;;;26.35;12.40;;;;;;;;;;5162333;27;20101;-75
2023/09/21 04:46:48;;;;;;;25.45;13.10;;;;;;;;;;5162773;27;20093;-76
2023/09/21 04:49:37;;;;;;;19.50;11.52;;;;;;;;;;5162257;27;20511;-75
2023/09/21 04:52:23;;;;;;;18.35;11.85;;;;;;;;;;5178785;27;20038;-75
2023/09/21 04:55:09;;;;;;;27.40;13.43;;;;;;;;;;5177906;27;20021;-74
2023/09/21 04:57:55;;;;;;;25.02;12.68;;;;;;;;;;5177630;27;20026;-74
2023/09/21 05:00:41;;;;;;;21.25;12.15;;;;;;;;;;5160484;27;20022;-76
2023/09/21 05:03:26;;;;;;;22.42;12.45;;;;;;;;;;5161210;27;20021;-74
2023/09/21 05:06:12;;;;;;;19.27;11.60;;;;;;;;;;5162113;27;20029;-76
2023/09/21 05:08:58;;;;;;;17.65;11.55;;;;;;;;;;5161977;27;20079;-74
2023/09/21 05:11:46;;;;;;;19.27;12.13;;;;;;;;;;5178112;27;20050;-73
2023/09/21 05:14:32;;;;;;;22.30;11.52;;;;;;;;;;5163261;27;20033;-73
2023/09/21 05:17:18;;;;;;;18.05;11.90;;;;;;;;;;5161545;27;20022;-74
2023/09/21 05:20:05;;;;;;;22.75;11.98;;;;;;;;;;5176127;27;20408;-74
2023/09/21 05:22:51;;;;;;;21.38;12.40;;;;;;;;;;5177152;27;20041;-74
2023/09/21 05:25:36;;;;;;;16.95;12.60;;;;;;;;;;5161629;27;20014;-73
2023/09/21 05:28:22;;;;;;;23.13;12.90;;;;;;;;;;5176512;27;20026;-73
2023/09/21 05:31:09;;;;;;;17.13;12.70;;;;;;;;;;5177515;27;20018;-75
2023/09/21 05:33:55;;;;;;;31.63;13.68;;;;;;;;;;5164377;27;20402;-73
2023/09/21 05:36:41;;;;;;;19.45;12.48;;;;;;;;;;5177424;27;20424;-75
2023/09/21 05:39:27;;;;;;;25.95;13.35;;;;;;;;;;5161695;27;20091;-75
2023/09/21 05:42:15;;;;;;;24.52;12.88;;;;;;;;;;5165514;27;20018;-74
2023/09/21 05:45:01;;;;;;;21.50;13.35;;;;;;;;;;5175792;27;20074;-74
2023/09/21 05:47:46;;;;;;;19.13;12.90;;;;;;;;;;5176433;27;20064;-73
2023/09/21 05:50:32;;;;;;;22.25;12.70;;;;;;;;;;5176999;27;20064;-75
2023/09/21 05:53:20;;;;;;;17.70;12.70;;;;;;;;;;5177186;27;20053;-74
2023/09/21 05:56:06;;;;;;;26.25;12.45;;;;;;;;;;5176508;27;20023;-74
2023/09/21 05:58:52;;;;;;;17.25;12.02;;;;;;;;;;5176226;27;20018;-75
2023/09/21 06:01:37;;;;;;;18.95;12.27;;;;;;;;;;5175382;27;20014;-73
2023/09/21 06:04:24;;;;;;;18.13;11.57;;;;;;;;;;5176820;27;20022;-73
2023/09/21 06:07:10;;;;;;;17.52;11.95;;;;;;;;;;5178375;27;20018;-78
2023/09/21 06:09:57;;;;;;;17.42;11.65;;;;;;;;;;5177664;27;20045;-79
2023/09/21 06:12:42;;;;;;;16.65;11.60;;;;;;;;;;5177245;27;20023;-80
2023/09/21 06:15:28;;;;;;;22.58;10.63;;;;;;;;;;5176851;27;20026;-82
2023/09/21 06:18:22;;;;;;;18.20;11.02;;;;;;;;;;5178694;27;20026;-81
2023/09/21 06:21:09;;;;;;;15.38;10.05;;;;;;;;;;5160784;27;20022;-81
2023/09/21 06:23:55;;;;;;;17.30;11.48;;;;;;;;;;5178250;27;20363;-81
2023/09/21 06:26:41;;;;;;;18.02;10.57;;;;;;;;;;5176620;27;20462;-81
2023/09/21 06:29:26;;;;;;;17.75;10.45;;;;;;;;;;5176573;27;20014;-82
2023/09/21 06:32:12;;;;;;;18.92;11.45;;;;;;;;;;5177029;27;20061;-80
2023/09/21 06:34:59;;;;;;;20.13;10.32;;;;;;;;;;5180974;27;20018;-82
2023/09/21 06:37:44;;;;;;;18.23;10.35;;;;;;;;;;5180637;27;20050;-81
2023/09/21 06:40:30;;;;;;;14.73;10.77;;;;;;;;;;5180284;27;20104;-81
2023/09/21 06:43:16;;;;;;;16.50;9.90;;;;;;;;;;5165586;27;20029;-81
2023/09/21 06:46:02;;;;;;;15.98;9.68;;;;;;;;;;5165018;27;20018;-80
2023/09/21 06:48:48;;;;;;;17.75;9.93;;;;;;;;;;5165475;27;20097;-82
2023/09/21 06:51:37;;;;;;;16.25;9.43;;;;;;;;;;5184308;27;20122;-80
2023/09/21 06:54:26;;;;;;;14.65;8.55;;;;;;;;;;5171553;27;20058;-79
2023/09/21 06:57:23;;;;;;;15.50;9.13;;;;;;;;;;5195284;27;20033;-78
2023/09/21 07:00:42;;;;;;;13.38;9.45;;;;;;;;;;5197914;27;20018;-77
2023/09/21 07:03:36;;;;;;;19.52;8.60;;;;;;;;;;5199075;27;20063;-78
2023/09/21 07:06:27;;;;;;;16.05;9.13;;;;;;;;;;5195690;27;20033;-76
2023/09/21 07:09:13;;;;;;;15.43;9.20;;;;;;;;;;5185699;27;20136;-77
2023/09/21 07:11:59;;;;;;;15.73;9.85;;;;;;;;;;5184614;27;20083;-77
2023/09/21 07:14:45;;;;;;;16.83;9.70;;;;;;;;;;5184074;27;20032;-80
2023/09/21 07:17:33;;;;;;;24.65;10.45;;;;;;;;;;5183744;27;20098;-79
2023/09/21 07:20:23;;;;;;;13.95;9.90;;;;;;;;;;5167610;27;20026;-81
2023/09/21 07:23:09;;;;;;;13.57;9.25;;;;;;;;;;5180255;27;20109;-81
2023/09/21 07:25:57;;;;;;;15.25;9.38;;;;;;;;;;5179536;27;20491;-76
2023/09/21 07:28:44;;;;;;;15.32;9.07;;;;;;;;;;5179604;27;20014;-76
2023/09/21 07:31:33;;;;;;;16.85;9.30;;;;;;;;;;5179244;27;20064;-75
2023/09/21 07:34:19;;;;;;;16.92;9.05;;;;;;;;;;5178751;27;20033;-75
2023/09/21 07:37:04;;;;;;;14.40;8.35;;;;;;;;;;5178986;27;20026;-75
2023/09/21 07:39:50;;;;;;;14.88;8.80;;;;;;;;;;5178480;27;20022;-75
2023/09/21 07:42:35;;;;;;;14.15;9.20;;;;;;;;;;5179166;27;20022;-75
2023/09/21 07:45:22;;;;;;;13.77;9.73;;;;;;;;;;5177071;27;20277;-75
2023/09/21 07:48:07;;;;;;;16.13;9.10;;;;;;;;;;5178566;27;20174;-75
2023/09/21 07:50:56;;;;;;;22.95;10.02;;;;;;;;;;5178617;27;20053;-76
2023/09/21 07:53:41;;;;;;;13.38;9.20;;;;;;;;;;5179215;27;20026;-77
2023/09/21 07:56:27;;;;;;;14.18;9.02;;;;;;;;;;5178998;27;20033;-78
2023/09/21 07:59:13;;;;;;;14.85;8.90;;;;;;;;;;5178642;27;20026;-76
2023/09/21 08:02:00;;;;;;;13.52;8.82;;;;;;;;;;5178901;27;20054;-77
2023/09/21 08:04:47;;;;;;;14.57;8.30;;;;;;;;;;5179221;27;20347;-77
2023/09/21 08:07:33;;;;;;;12.10;8.65;;;;;;;;;;5178311;27;20060;-78
2023/09/21 08:10:18;;;;;;;14.05;9.43;;;;;;;;;;5179142;27;20045;-80
2023/09/21 08:13:04;;;;;;;22.20;9.50;;;;;;;;;;5178336;27;20037;-77
2023/09/21 08:15:52;;;;;;;15.48;9.25;;;;;;;;;;5178938;27;20025;-77
2023/09/21 08:18:37;;;;;;;16.75;9.18;;;;;;;;;;5179634;27;20078;-77
2023/09/21 08:21:23;;;;;;;18.08;9.10;;;;;;;;;;5177845;27;20041;-77
2023/09/21 08:24:09;;;;;;;10.48;8.35;;;;;;;;;;5179111;27;20074;-77
2023/09/21 08:26:55;;;;;;;12.25;8.57;;;;;;;;;;5178040;27;20033;-77
2023/09/21 08:29:44;;;;;;;11.38;8.40;;;;;;;;;;5176867;27;20014;-77
2023/09/21 08:32:30;;;;;;;16.10;8.35;;;;;;;;;;5163786;27;20018;-76
2023/09/21 08:35:16;;;;;;;11.10;8.13;;;;;;;;;;5177168;27;20015;-76
2023/09/21 08:38:03;;;;;;;19.70;9.02;;;;;;;;;;5180396;27;20105;-74
2023/09/21 08:40:52;;;;;;;15.43;8.52;;;;;;;;;;5164562;27;20022;-75
2023/09/21 08:43:37;;;;;;;15.55;8.80;;;;;;;;;;5162870;27;20028;-75
2023/09/21 08:46:23;;;;;;;17.48;8.45;;;;;;;;;;5181397;27;20018;-74
2023/09/21 08:49:09;;;;;;;19.50;8.52;;;;;;;;;;5178097;27;20034;-74
2023/09/21 08:51:57;;;;;;;13.85;8.20;;;;;;;;;;5178818;27;20109;-74
2023/09/21 08:54:42;;;;;;;10.02;7.78;;;;;;;;;;5164230;27;20439;-75
2023/09/21 08:57:30;;;;;;;17.55;8.10;;;;;;;;;;5176338;27;20094;-76
2023/09/21 09:00:26;;;;;;;17.23;7.75;;;;;;;;;;5162481;27;20038;-75
2023/09/21 09:03:11;;;;;;;13.93;7.82;;;;;;;;;;5163340;27;20034;-73
2023/09/21 09:06:01;;;;;;;9.55;7.88;;;;;;;;;;5176993;27;20018;-74
2023/09/21 09:08:47;;;;;;;10.98;7.40;;;;;;;;;;5163533;27;20045;-76
2023/09/21 09:11:36;;;;;;;12.40;7.40;;;;;;;;;;5179509;27;20305;-76
2023/09/21 09:14:23;;;;;;;12.60;7.75;;;;;;;;;;5162698;27;20026;-75
2023/09/21 09:17:12;;;;;;;10.68;7.20;;;;;;;;;;5160931;27;20018;-75
2023/09/21 09:19:58;;;;;;;10.40;7.25;;;;;;;;;;5176400;27;20033;-74
2023/09/21 09:22:43;;;;;;;15.55;7.10;;;;;;;;;;5176118;27;20026;-75
2023/09/21 09:25:29;;;;;;;10.63;7.10;;;;;;;;;;5176733;27;20014;-76
2023/09/21 09:28:17;;;;;;;13.27;7.35;;;;;;;;;;5161264;27;20018;-75
2023/09/21 09:31:06;;;;;;;12.65;7.30;;;;;;;;;;5178256;27;20025;-75
2023/09/21 09:33:55;;;;;;;15.68;6.90;;;;;;;;;;5177264;27;20109;-77
2023/09/21 09:36:41;;;;;;;10.77;7.15;;;;;;;;;;5176279;27;20045;-75
2023/09/21 09:39:27;;;;;;;10.15;6.32;;;;;;;;;;5161234;27;20158;-76
2023/09/21 09:42:13;;;;;;;19.40;7.15;;;;;;;;;;5176920;27;20355;-76
2023/09/21 09:45:03;;;;;;;12.02;7.10;;;;;;;;;;5176302;27;20410;-76
2023/09/21 09:47:55;;;;;;;9.55;7.47;;;;;;;;;;5176132;27;20018;-76
2023/09/21 09:50:41;;;;;;;13.80;7.75;;;;;;;;;;5176947;27;20459;-77
2023/09/21 09:53:28;;;;;;;12.05;6.55;;;;;;;;;;5178354;27;20029;-77
2023/09/21 09:56:14;;;;;;;13.20;7.63;;;;;;;;;;5163676;27;20014;-76
2023/09/21 09:59:02;;;;;;;10.38;7.65;;;;;;;;;;5162896;27;20026;-78
2023/09/21 10:01:49;;;;;;;15.55;7.57;;;;;;;;;;5178478;27;20062;-76
2023/09/21 10:04:36;;;;;;;19.20;8.20;;;;;;;;;;5165063;27;20019;-77
2023/09/21 10:07:22;;;;;;;13.05;7.25;;;;;;;;;;5182959;27;20431;-74
2023/09/21 10:10:08;;;;;;;18.55;7.55;;;;;;;;;;5179921;27;20022;-75
2023/09/21 10:12:56;;;;;;;13.73;6.55;;;;;;;;;;5166220;27;20028;-75
2023/09/21 10:15:43;;;;;;;19.10;8.93;;;;;;;;;;5181032;27;20054;-75
2023/09/21 10:18:29;;;;;;;13.50;6.97;;;;;;;;;;5180625;27;20033;-76
2023/09/21 10:21:24;;;;;;;8.10;6.60;;;;;;;;;;5179513;27;20027;-76
2023/09/21 10:24:13;;;;;;;11.73;6.65;;;;;;;;;;5164571;27;20101;-75
2023/09/21 10:27:03;;;;;;;9.02;6.28;;;;;;;;;;5182922;27;20070;-75
2023/09/21 10:29:51;;;;;;;10.73;6.97;;;;;;;;;;5182054;27;20082;-75
2023/09/21 10:32:41;;;;;;;12.40;6.45;;;;;;;;;;5179365;27;20022;-74
2023/09/21 10:35:33;;;;;;;8.57;5.80;;;;;;;;;;5182489;27;20048;-76
2023/09/21 10:38:18;;;;;;;13.10;5.80;;;;;;;;;;5180815;27;20029;-75
2023/09/21 10:41:23;;;;;;;8.50;6.45;;;;;;;;;;5179975;27;20072;-70
2023/09/21 10:44:09;;;;;;;21.73;9.32;;;;;;;;;;5179289;27;20026;-71
2023/09/21 10:46:56;;;;;;;16.70;6.53;;;;;;;;;;5165192;27;20037;-71
2023/09/21 10:49:42;;;;;;;14.70;6.00;;;;;;;;;;5178105;27;20046;-70
2023/09/21 10:52:28;;;;;;;12.73;6.05;;;;;;;;;;5179831;27;20352;-71
2023/09/21 10:55:16;;;;;;;14.85;6.20;;;;;;;;;;5179553;27;20045;-71
2023/09/21 10:58:02;;;;;;;11.13;6.18;;;;;;;;;;5180103;27;20324;-71
2023/09/21 11:00:48;;;;;;;15.20;6.40;;;;;;;;;;5179051;27;20018;-73
2023/09/21 11:03:35;;;;;;;9.68;5.88;;;;;;;;;;5165515;27;20446;-72
2023/09/21 11:06:21;;;;;;;12.55;6.32;;;;;;;;;;5179515;27;20026;-71
2023/09/21 11:09:07;;;;;;;10.10;6.13;;;;;;;;;;5180028;27;20029;-72
2023/09/21 11:11:53;;;;;;;10.88;5.75;;;;;;;;;;5180885;27;20443;-72
2023/09/21 11:14:41;;;;;;;9.90;6.10;;;;;;;;;;5178956;27;20022;-71
2023/09/21 11:17:28;;;;;;;12.43;5.78;;;;;;;;;;5179269;27;20323;-71
2023/09/21 11:20:17;;;;;;;13.57;6.20;;;;;;;;;;5177534;27;20363;-71
2023/09/21 11:23:03;;;;;;;8.70;5.80;;;;;;;;;;5179321;27;20045;-71
2023/09/21 11:25:49;;;;;;;11.07;5.80;;;;;;;;;;5178948;27;20098;-71
2023/09/21 11:28:36;;;;;;;9.90;5.38;;;;;;;;;;5179145;27;20019;-71
2023/09/21 11:31:21;;;;;;;14.35;5.40;;;;;;;;;;5178252;27;20010;-72
2023/09/21 11:34:07;;;;;;;16.13;5.72;;;;;;;;;;5178963;27;20159;-72
2023/09/21 11:36:52;;;;;;;8.68;5.38;;;;;;;;;;5179824;27;20428;-72
2023/09/21 11:39:39;;;;;;;11.60;5.82;;;;;;;;;;5179147;27;20458;-71
2023/09/21 11:42:25;;;;;;;7.13;4.80;;;;;;;;;;5178338;27;20014;-71
2023/09/21 11:45:15;;;;;;;10.45;5.53;;;;;;;;;;5178574;27;20018;-72
2023/09/21 11:48:00;;;;;;;13.52;5.43;;;;;;;;;;5178471;27;20515;-71
2023/09/21 11:50:48;;;;;;;11.23;5.22;;;;;;;;;;5162601;27;20054;-72
2023/09/21 11:53:33;;;;;;;8.18;5.32;;;;;;;;;;5178472;27;20067;-71
2023/09/21 11:56:19;;;;;;;9.18;5.28;;;;;;;;;;5163698;27;20026;-72
2023/09/21 11:59:06;;;;;;;6.95;5.20;;;;;;;;;;5177796;27;20014;-73
2023/09/21 12:01:56;;;;;;;10.18;5.05;;;;;;;;;;5177979;27;20533;-71
2023/09/21 12:04:42;;;;;;;9.60;5.30;;;;;;;;;;5179045;27;20458;-74
2023/09/21 12:07:27;;;;;;;6.53;4.70;;;;;;;;;;5173361;27;20014;-72
2023/09/21 12:10:14;;;;;;;12.98;5.20;;;;;;;;;;5174650;27;20015;-72
2023/09/21 12:13:00;;;;;;;8.95;5.03;;;;;;;;;;5163079;27;20470;-72
2023/09/21 12:15:46;;;;;;;7.70;4.80;;;;;;;;;;5142778;27;20026;-70
2023/09/21 12:18:32;;;;;;;11.45;5.50;;;;;;;;;;5141904;27;20218;-72
2023/09/21 12:21:20;;;;;;;9.85;5.22;;;;;;;;;;5157029;27;20023;-72
2023/09/21 12:24:07;;;;;;;11.90;5.20;;;;;;;;;;5142742;27;20019;-73
2023/09/21 12:26:53;;;;;;;7.88;4.88;;;;;;;;;;5157296;27;20030;-73
2023/09/21 12:29:39;;;;;;;8.43;4.90;;;;;;;;;;5177629;27;20029;-73
2023/09/21 12:32:24;;;;;;;8.40;5.10;;;;;;;;;;5177257;27;20022;-73
2023/09/21 12:35:11;;;;;;;16.92;5.60;;;;;;;;;;5163958;27;20022;-73
2023/09/21 12:37:58;;;;;;;9.27;4.85;;;;;;;;;;5177087;27;20045;-73
2023/09/21 12:40:44;;;;;;;9.60;4.55;;;;;;;;;;5177109;27;20435;-73
2023/09/21 12:43:29;;;;;;;13.43;4.93;;;;;;;;;;5175971;27;20037;-73
2023/09/21 12:46:15;;;;;;;8.98;4.90;;;;;;;;;;5161458;27;20026;-74
2023/09/21 12:49:01;;;;;;;14.80;5.05;;;;;;;;;;5177114;27;20124;-73
2023/09/21 12:51:46;;;;;;;9.15;5.35;;;;;;;;;;5177160;27;20070;-73
2023/09/21 12:54:32;;;;;;;7.78;5.10;;;;;;;;;;5161617;27;20029;-73
2023/09/21 12:57:18;;;;;;;7.22;5.10;;;;;;;;;;5177122;27;20051;-73
2023/09/21 13:00:15;;;;;;;12.77;5.40;;;;;;;;;;5177560;27;20029;-73
2023/09/21 13:03:02;;;;;;;19.17;6.43;;;;;;;;;;5176117;27;20027;-73
2023/09/21 13:05:48;;;;;;;11.65;6.47;;;;;;;;;;5177514;27;20030;-72
2023/09/21 13:08:34;;;;;;;12.93;5.57;;;;;;;;;;5167812;27;20024;-72
2023/09/21 13:11:20;;;;;;;10.95;5.40;;;;;;;;;;5177122;27;20049;-73
2023/09/21 13:14:06;;;;;;;11.48;5.22;;;;;;;;;;5161466;27;20144;-74
2023/09/21 13:16:51;;;;;;;13.38;5.90;;;;;;;;;;5176914;27;20026;-74
2023/09/21 13:19:37;;;;;;;11.82;5.65;;;;;;;;;;5176356;27;20407;-74
2023/09/21 13:22:23;;;;;;;10.25;5.20;;;;;;;;;;5176045;27;20427;-74
2023/09/21 13:25:08;;;;;;;8.85;4.75;;;;;;;;;;5176317;27;20093;-74
2023/09/21 13:27:54;;;;;;;7.72;4.95;;;;;;;;;;5176696;27;20462;-72
2023/09/21 13:30:43;;;;;;;6.90;4.97;;;;;;;;;;5177538;27;20018;-73
2023/09/21 13:33:28;;;;;;;14.45;4.68;;;;;;;;;;5177001;27;20018;-73
2023/09/21 13:36:14;;;;;;;8.52;4.82;;;;;;;;;;5176076;27;20029;-74
2023/09/21 13:39:00;;;;;;;11.38;4.80;;;;;;;;;;5176087;27;20015;-73
2023/09/21 13:41:51;;;;;;;9.55;5.00;;;;;;;;;;5175215;27;20037;-73
2023/09/21 13:44:36;;;;;;;9.18;5.05;;;;;;;;;;5175279;27;20094;-74
2023/09/21 13:47:22;;;;;;;11.90;5.07;;;;;;;;;;5175938;27;20026;-74
2023/09/21 13:50:08;;;;;;;11.38;5.22;;;;;;;;;;5175658;27;20430;-74
2023/09/21 13:52:53;;;;;;;13.13;5.38;;;;;;;;;;5176306;27;20022;-73
2023/09/21 13:55:39;;;;;;;13.13;5.57;;;;;;;;;;5175728;27;20113;-75
2023/09/21 13:58:25;;;;;;;10.60;4.80;;;;;;;;;;5175737;27;20101;-73
2023/09/21 14:01:10;;;;;;;7.38;5.10;;;;;;;;;;5175346;27;20048;-74
2023/09/21 14:03:57;;;;;;;15.40;5.85;;;;;;;;;;5175495;27;20342;-74
2023/09/21 14:06:43;;;;;;;20.30;6.28;;;;;;;;;;5161272;27;20019;-74
2023/09/21 14:09:28;;;;;;;10.20;5.40;;;;;;;;;;5176715;27;20018;-75
2023/09/21 14:12:14;;;;;;;12.00;5.40;;;;;;;;;;5161671;27;20029;-75
2023/09/21 14:15:00;;;;;;;11.93;5.65;;;;;;;;;;5176141;27;20089;-75
2023/09/21 14:17:45;;;;;;;10.52;5.00;;;;;;;;;;5176610;27;20025;-74
2023/09/21 14:20:31;;;;;;;9.55;5.35;;;;;;;;;;5176196;27;20440;-75
2023/09/21 14:23:17;;;;;;;12.48;5.13;;;;;;;;;;5176548;27;20015;-75
2023/09/21 14:26:03;;;;;;;13.57;5.28;;;;;;;;;;5177865;27;20035;-75
2023/09/21 14:28:50;;;;;;;13.65;5.60;;;;;;;;;;5178162;27;20070;-74
2023/09/21 14:31:35;;;;;;;13.90;6.05;;;;;;;;;;5163211;27;20036;-74
2023/09/21 14:34:21;;;;;;;14.25;6.10;;;;;;;;;;5177317;27;20428;-74
2023/09/21 14:37:07;;;;;;;12.00;5.78;;;;;;;;;;5177518;27;20127;-73
2023/09/21 14:39:56;;;;;;;13.75;6.38;;;;;;;;;;5178882;27;20503;-75
2023/09/21 14:42:42;;;;;;;17.00;7.47;;;;;;;;;;5181758;27;20026;-73
2023/09/21 14:45:27;;;;;;;13.57;6.45;;;;;;;;;;5182251;27;20089;-74
2023/09/21 14:48:14;;;;;;;19.58;7.03;;;;;;;;;;5194228;27;20043;-75
2023/09/21 14:50:59;;;;;;;15.25;7.03;;;;;;;;;;5193986;27;20038;-76
2023/09/21 14:53:45;;;;;;;19.40;6.43;;;;;;;;;;5194207;27;20018;-73
2023/09/21 14:56:30;;;;;;;18.52;7.05;;;;;;;;;;5197273;27;20055;-73
2023/09/21 14:59:16;;;;;;;18.35;7.10;;;;;;;;;;5197683;27;20015;-73
2023/09/21 15:02:02;;;;;;;14.95;6.95;;;;;;;;;;5198517;27;20046;-73
2023/09/21 15:04:48;;;;;;;15.95;7.65;;;;;;;;;;5196093;27;20014;-70
2023/09/21 15:07:33;;;;;;;15.77;7.70;;;;;;;;;;5190098;27;20026;-71
2023/09/21 15:10:19;;;;;;;13.80;7.10;;;;;;;;;;5186739;27;20028;-71
2023/09/21 15:13:04;;;;;;;9.23;6.03;;;;;;;;;;5170196;27;20022;-71
2023/09/21 15:15:50;;;;;;;11.60;6.72;;;;;;;;;;5188441;27;20315;-72
2023/09/21 15:18:36;;;;;;;13.73;7.20;;;;;;;;;;5193165;27;20431;-72
2023/09/21 15:21:21;;;;;;;13.55;5.80;;;;;;;;;;5188764;27;20030;-73
2023/09/21 15:24:07;;;;;;;14.32;6.03;;;;;;;;;;5190734;27;20014;-72
2023/09/21 15:26:53;;;;;;;15.85;7.05;;;;;;;;;;5189094;27;20021;-74
2023/09/21 15:29:40;;;;;;;13.77;6.25;;;;;;;;;;5188318;27;20074;-72
2023/09/21 15:32:25;;;;;;;13.80;6.65;;;;;;;;;;5169570;27;20458;-71
2023/09/21 15:35:11;;;;;;;30.05;11.80;;;;;;;;;;5189748;27;20034;-71
2023/09/21 15:37:57;;;;;;;20.58;8.95;;;;;;;;;;5186990;27;20030;-70
2023/09/21 15:40:45;;;;;;;15.27;7.50;;;;;;;;;;5187681;27;20478;-70
2023/09/21 15:43:31;;;;;;;18.92;8.27;;;;;;;;;;5169540;27;20432;-70
2023/09/21 15:46:16;;;;;;;12.95;7.03;;;;;;;;;;5167022;27;20057;-70
2023/09/21 15:49:04;;;;;;;13.35;7.40;;;;;;;;;;5167019;27;20078;-71
2023/09/21 15:51:49;;;;;;;13.48;7.82;;;;;;;;;;5182816;27;20439;-70
2023/09/21 15:54:35;;;;;;;19.02;7.38;;;;;;;;;;5179461;27;20029;-71
2023/09/21 15:57:21;;;;;;;18.52;8.25;;;;;;;;;;5177685;27;20398;-71
2023/09/21 16:00:09;;;;;;;25.17;7.95;;;;;;;;;;5179011;27;20033;-73
2023/09/21 16:02:55;;;;;;;19.77;8.30;;;;;;;;;;5181184;27;20094;-71
2023/09/21 16:05:41;;;;;;;28.67;8.85;;;;;;;;;;5189952;27;20010;-70
2023/09/21 16:08:27;;;;;;;22.52;8.60;;;;;;;;;;5186348;27;20095;-70
2023/09/21 16:11:14;;;;;;;23.35;8.63;;;;;;;;;;5165848;27;20030;-70
2023/09/21 16:14:01;;;;;;;20.05;8.45;;;;;;;;;;5165611;27;20400;-69
2023/09/21 16:16:47;;;;;;;23.40;8.75;;;;;;;;;;5168149;27;20029;-72
2023/09/21 16:19:32;;;;;;;24.75;9.00;;;;;;;;;;5191981;27;20078;-71
2023/09/21 16:22:19;;;;;;;21.88;8.65;;;;;;;;;;5185229;27;20014;-72